sensor_id;sensor_type;location;lat;lon;timestamp;temperature;humidity
49829;DHT22;35723;51.194;5.112;2022-10-22T00:00:08;16.80;99.90
49829;DHT22;35723;51.194;5.112;2022-10-22T00:02:34;16.90;99.90
49829;DHT22;35723;51.194;5.112;2022-10-22T00:05:00;16.90;99.90
49829;DHT22;35723;51.194;5.112;2022-10-22T00:07:25;16.90;99.90
49829;DHT22;35723;51.194;5.112;2022-10-22T00:09:51;16.90;99.90
49829;DHT22;35723;51.194;5.112;2022-10-22T00:12:17;16.90;99.90
49829;DHT22;35723;51.194;5.112;2022-10-22T00:14:43;16.90;99.90
49829;DHT22;35723;51.194;5.112;2022-10-22T00:17:10;16.90;99.90
49829;DHT22;35723;51.194;5.112;2022-10-22T00:19:35;17.00;99.90
49829;DHT22;35723;51.194;5.112;2022-10-22T00:22:01;16.90;99.90
49829;DHT22;35723;51.194;5.112;2022-10-22T00:24:31;17.00;99.90
49829;DHT22;35723;51.194;5.112;2022-10-22T00:26:56;16.90;99.90
49829;DHT22;35723;51.194;5.112;2022-10-22T00:29:22;16.90;99.90
49829;DHT22;35723;51.194;5.112;2022-10-22T00:31:48;16.90;99.90
49829;DHT22;35723;51.194;5.112;2022-10-22T00:34:18;17.00;99.90
49829;DHT22;35723;51.194;5.112;2022-10-22T00:36:46;16.90;99.90
49829;DHT22;35723;51.194;5.112;2022-10-22T00:39:12;16.90;99.90
49829;DHT22;35723;51.194;5.112;2022-10-22T00:41:41;16.90;99.90
49829;DHT22;35723;51.194;5.112;2022-10-22T00:44:07;16.90;99.90
49829;DHT22;35723;51.194;5.112;2022-10-22T00:46:52;16.90;99.90
49829;DHT22;35723;51.194;5.112;2022-10-22T00:49:18;16.90;99.90
49829;DHT22;35723;51.194;5.112;2022-10-22T00:51:44;16.90;99.90
49829;DHT22;35723;51.194;5.112;2022-10-22T00:54:09;16.80;99.90
49829;DHT22;35723;51.194;5.112;2022-10-22T00:56:35;16.80;99.90
49829;DHT22;35723;51.194;5.112;2022-10-22T00:59:02;16.80;99.90
49829;DHT22;35723;51.194;5.112;2022-10-22T01:01:30;16.80;99.90
49829;DHT22;35723;51.194;5.112;2022-10-22T01:03:56;16.90;99.90
49829;DHT22;35723;51.194;5.112;2022-10-22T01:06:30;16.80;99.90
49829;DHT22;35723;51.194;5.112;2022-10-22T01:17:16;16.50;99.90
49829;DHT22;35723;51.194;5.112;2022-10-22T01:20:00;16.50;99.90
49829;DHT22;35723;51.194;5.112;2022-10-22T01:30:40;16.20;99.90
49829;DHT22;35723;51.194;5.112;2022-10-22T01:33:09;16.20;99.90
49829;DHT22;35723;51.194;5.112;2022-10-22T01:35:40;16.20;99.90
49829;DHT22;35723;51.194;5.112;2022-10-22T01:38:11;16.10;99.90
49829;DHT22;35723;51.194;5.112;2022-10-22T01:40:39;16.00;99.90
49829;DHT22;35723;51.194;5.112;2022-10-22T01:43:07;16.10;99.90
49829;DHT22;35723;51.194;5.112;2022-10-22T01:45:36;16.10;99.90
49829;DHT22;35723;51.194;5.112;2022-10-22T01:48:25;16.20;99.90
49829;DHT22;35723;51.194;5.112;2022-10-22T02:04:52;16.30;99.90
49829;DHT22;35723;51.194;5.112;2022-10-22T02:07:22;16.30;99.90
49829;DHT22;35723;51.194;5.112;2022-10-22T02:09:50;16.40;99.90
49829;DHT22;35723;51.194;5.112;2022-10-22T02:12:18;16.40;99.90
49829;DHT22;35723;51.194;5.112;2022-10-22T02:14:47;16.40;99.90
49829;DHT22;35723;51.194;5.112;2022-10-22T02:17:18;16.40;99.90
49829;DHT22;35723;51.194;5.112;2022-10-22T02:19:56;16.50;99.90
49829;DHT22;35723;51.194;5.112;2022-10-22T02:22:23;16.50;99.90
49829;DHT22;35723;51.194;5.112;2022-10-22T02:24:50;16.50;99.90
49829;DHT22;35723;51.194;5.112;2022-10-22T02:28:05;16.40;99.90
49829;DHT22;35723;51.194;5.112;2022-10-22T02:30:37;16.40;99.90
49829;DHT22;35723;51.194;5.112;2022-10-22T02:33:12;16.40;99.90
49829;DHT22;35723;51.194;5.112;2022-10-22T02:35:40;16.40;99.90
49829;DHT22;35723;51.194;5.112;2022-10-22T02:38:07;16.40;99.90
49829;DHT22;35723;51.194;5.112;2022-10-22T02:40:33;16.50;99.90
49829;DHT22;35723;51.194;5.112;2022-10-22T02:42:59;16.50;99.90
49829;DHT22;35723;51.194;5.112;2022-10-22T02:45:28;16.50;99.90
49829;DHT22;35723;51.194;5.112;2022-10-22T02:47:54;16.60;99.90
49829;DHT22;35723;51.194;5.112;2022-10-22T02:50:19;16.60;99.90
49829;DHT22;35723;51.194;5.112;2022-10-22T02:52:45;16.60;99.90
49829;DHT22;35723;51.194;5.112;2022-10-22T02:55:11;16.60;99.90
49829;DHT22;35723;51.194;5.112;2022-10-22T02:57:36;16.60;99.90
49829;DHT22;35723;51.194;5.112;2022-10-22T03:00:04;16.60;99.90
49829;DHT22;35723;51.194;5.112;2022-10-22T03:02:30;16.60;99.90
49829;DHT22;35723;51.194;5.112;2022-10-22T03:04:55;16.60;99.90
49829;DHT22;35723;51.194;5.112;2022-10-22T03:07:21;16.50;99.90
49829;DHT22;35723;51.194;5.112;2022-10-22T03:09:47;16.60;99.90
49829;DHT22;35723;51.194;5.112;2022-10-22T03:12:12;16.60;99.90
49829;DHT22;35723;51.194;5.112;2022-10-22T03:14:38;16.60;99.90
49829;DHT22;35723;51.194;5.112;2022-10-22T03:17:03;16.60;99.90
49829;DHT22;35723;51.194;5.112;2022-10-22T03:19:29;16.60;99.90
49829;DHT22;35723;51.194;5.112;2022-10-22T03:22:04;16.60;99.90
49829;DHT22;35723;51.194;5.112;2022-10-22T03:24:35;16.70;99.90
49829;DHT22;35723;51.194;5.112;2022-10-22T03:27:02;16.60;99.90
49829;DHT22;35723;51.194;5.112;2022-10-22T03:29:29;16.70;99.90
49829;DHT22;35723;51.194;5.112;2022-10-22T03:31:55;16.70;99.90
49829;DHT22;35723;51.194;5.112;2022-10-22T03:34:21;16.70;99.90
49829;DHT22;35723;51.194;5.112;2022-10-22T03:36:47;16.70;99.90
49829;DHT22;35723;51.194;5.112;2022-10-22T03:39:15;16.60;99.90
49829;DHT22;35723;51.194;5.112;2022-10-22T03:41:42;16.60;99.90
49829;DHT22;35723;51.194;5.112;2022-10-22T03:44:09;16.70;99.90
49829;DHT22;35723;51.194;5.112;2022-10-22T03:46:35;16.70;99.90
49829;DHT22;35723;51.194;5.112;2022-10-22T03:49:00;16.70;99.90
49829;DHT22;35723;51.194;5.112;2022-10-22T03:51:27;16.70;99.90
49829;DHT22;35723;51.194;5.112;2022-10-22T03:53:53;16.70;99.90
49829;DHT22;35723;51.194;5.112;2022-10-22T03:56:19;16.70;99.90
49829;DHT22;35723;51.194;5.112;2022-10-22T03:58:45;16.70;99.90
49829;DHT22;35723;51.194;5.112;2022-10-22T04:01:11;16.60;99.90
49829;DHT22;35723;51.194;5.112;2022-10-22T04:03:38;16.60;99.90
49829;DHT22;35723;51.194;5.112;2022-10-22T04:06:07;16.60;99.90
49829;DHT22;35723;51.194;5.112;2022-10-22T04:08:33;16.60;99.90
49829;DHT22;35723;51.194;5.112;2022-10-22T04:10:59;16.60;99.90
49829;DHT22;35723;51.194;5.112;2022-10-22T04:13:24;16.70;99.90
49829;DHT22;35723;51.194;5.112;2022-10-22T04:15:50;16.60;99.90
49829;DHT22;35723;51.194;5.112;2022-10-22T04:18:17;16.60;99.90
49829;DHT22;35723;51.194;5.112;2022-10-22T04:20:43;16.60;99.90
49829;DHT22;35723;51.194;5.112;2022-10-22T04:23:09;16.60;99.90
49829;DHT22;35723;51.194;5.112;2022-10-22T04:25:35;16.60;99.90
49829;DHT22;35723;51.194;5.112;2022-10-22T04:28:00;16.60;99.90
49829;DHT22;35723;51.194;5.112;2022-10-22T04:30:26;16.60;99.90
49829;DHT22;35723;51.194;5.112;2022-10-22T04:32:52;16.50;99.90
49829;DHT22;35723;51.194;5.112;2022-10-22T04:35:17;16.60;99.90
49829;DHT22;35723;51.194;5.112;2022-10-22T04:37:43;16.60;99.90
49829;DHT22;35723;51.194;5.112;2022-10-22T04:40:09;16.70;99.90
49829;DHT22;35723;51.194;5.112;2022-10-22T04:42:35;16.60;99.90
49829;DHT22;35723;51.194;5.112;2022-10-22T04:45:00;16.60;99.90
49829;DHT22;35723;51.194;5.112;2022-10-22T04:47:26;16.60;99.90
49829;DHT22;35723;51.194;5.112;2022-10-22T04:49:52;16.60;99.90
49829;DHT22;35723;51.194;5.112;2022-10-22T04:52:17;16.50;99.90
49829;DHT22;35723;51.194;5.112;2022-10-22T04:54:43;16.60;99.90
49829;DHT22;35723;51.194;5.112;2022-10-22T04:57:08;16.60;99.90
49829;DHT22;35723;51.194;5.112;2022-10-22T04:59:34;16.50;99.90
49829;DHT22;35723;51.194;5.112;2022-10-22T05:01:59;16.60;99.90
49829;DHT22;35723;51.194;5.112;2022-10-22T05:04:25;16.50;99.90
49829;DHT22;35723;51.194;5.112;2022-10-22T05:06:51;16.50;99.90
49829;DHT22;35723;51.194;5.112;2022-10-22T05:09:18;16.60;99.90
49829;DHT22;35723;51.194;5.112;2022-10-22T05:11:47;16.70;99.90
49829;DHT22;35723;51.194;5.112;2022-10-22T05:14:15;16.60;99.90
49829;DHT22;35723;51.194;5.112;2022-10-22T05:16:41;16.70;99.90
49829;DHT22;35723;51.194;5.112;2022-10-22T05:19:07;16.60;99.90
49829;DHT22;35723;51.194;5.112;2022-10-22T05:21:33;16.60;99.90
49829;DHT22;35723;51.194;5.112;2022-10-22T05:23:59;16.70;99.90
49829;DHT22;35723;51.194;5.112;2022-10-22T05:26:26;16.60;99.90
49829;DHT22;35723;51.194;5.112;2022-10-22T05:28:52;16.60;99.90
49829;DHT22;35723;51.194;5.112;2022-10-22T05:31:18;16.60;99.90
49829;DHT22;35723;51.194;5.112;2022-10-22T05:33:45;16.60;99.90
49829;DHT22;35723;51.194;5.112;2022-10-22T05:36:17;16.60;99.90
49829;DHT22;35723;51.194;5.112;2022-10-22T05:38:43;16.60;99.90
49829;DHT22;35723;51.194;5.112;2022-10-22T05:41:14;16.60;99.90
49829;DHT22;35723;51.194;5.112;2022-10-22T05:43:40;16.60;99.90
49829;DHT22;35723;51.194;5.112;2022-10-22T05:46:09;16.60;99.90
49829;DHT22;35723;51.194;5.112;2022-10-22T05:48:36;16.50;99.90
49829;DHT22;35723;51.194;5.112;2022-10-22T05:51:10;16.50;99.90
49829;DHT22;35723;51.194;5.112;2022-10-22T05:53:38;16.50;99.90
49829;DHT22;35723;51.194;5.112;2022-10-22T05:56:11;16.50;99.90
49829;DHT22;35723;51.194;5.112;2022-10-22T05:58:37;16.50;99.90
49829;DHT22;35723;51.194;5.112;2022-10-22T06:01:06;16.40;99.90
49829;DHT22;35723;51.194;5.112;2022-10-22T06:03:32;16.60;99.90
49829;DHT22;35723;51.194;5.112;2022-10-22T06:06:03;16.50;99.90
49829;DHT22;35723;51.194;5.112;2022-10-22T06:08:29;16.60;99.90
49829;DHT22;35723;51.194;5.112;2022-10-22T06:10:56;16.70;99.90
49829;DHT22;35723;51.194;5.112;2022-10-22T06:13:21;16.60;99.90
49829;DHT22;35723;51.194;5.112;2022-10-22T06:15:49;16.50;99.90
49829;DHT22;35723;51.194;5.112;2022-10-22T06:18:14;16.50;99.90
49829;DHT22;35723;51.194;5.112;2022-10-22T06:20:40;16.50;99.90
49829;DHT22;35723;51.194;5.112;2022-10-22T06:23:07;16.60;99.90
49829;DHT22;35723;51.194;5.112;2022-10-22T06:25:33;16.60;99.90
49829;DHT22;35723;51.194;5.112;2022-10-22T06:27:58;16.60;99.90
49829;DHT22;35723;51.194;5.112;2022-10-22T06:30:24;16.60;99.90
49829;DHT22;35723;51.194;5.112;2022-10-22T06:32:49;16.60;99.90
49829;DHT22;35723;51.194;5.112;2022-10-22T06:35:15;16.60;99.90
49829;DHT22;35723;51.194;5.112;2022-10-22T06:37:41;16.60;99.90
49829;DHT22;35723;51.194;5.112;2022-10-22T06:40:07;16.60;99.90
49829;DHT22;35723;51.194;5.112;2022-10-22T06:42:32;16.50;99.90
49829;DHT22;35723;51.194;5.112;2022-10-22T06:44:58;16.40;99.90
49829;DHT22;35723;51.194;5.112;2022-10-22T06:47:23;16.50;99.90
49829;DHT22;35723;51.194;5.112;2022-10-22T06:49:49;16.40;99.90
49829;DHT22;35723;51.194;5.112;2022-10-22T06:52:15;16.50;99.90
49829;DHT22;35723;51.194;5.112;2022-10-22T06:54:40;16.50;99.90
49829;DHT22;35723;51.194;5.112;2022-10-22T06:57:06;16.50;99.90
49829;DHT22;35723;51.194;5.112;2022-10-22T06:59:32;16.60;99.90
49829;DHT22;35723;51.194;5.112;2022-10-22T07:01:57;16.50;99.90
49829;DHT22;35723;51.194;5.112;2022-10-22T07:04:23;16.60;99.90
49829;DHT22;35723;51.194;5.112;2022-10-22T07:06:48;16.50;99.90
49829;DHT22;35723;51.194;5.112;2022-10-22T07:09:14;16.50;99.90
49829;DHT22;35723;51.194;5.112;2022-10-22T07:11:42;16.50;99.90
49829;DHT22;35723;51.194;5.112;2022-10-22T07:14:08;16.50;99.90
49829;DHT22;35723;51.194;5.112;2022-10-22T07:16:34;16.50;99.90
49829;DHT22;35723;51.194;5.112;2022-10-22T07:19:01;16.50;99.90
49829;DHT22;35723;51.194;5.112;2022-10-22T07:21:28;16.40;99.90
49829;DHT22;35723;51.194;5.112;2022-10-22T07:23:54;16.60;99.90
49829;DHT22;35723;51.194;5.112;2022-10-22T07:26:19;16.50;99.90
49829;DHT22;35723;51.194;5.112;2022-10-22T07:28:46;16.60;99.90
49829;DHT22;35723;51.194;5.112;2022-10-22T07:31:13;16.60;99.90
49829;DHT22;35723;51.194;5.112;2022-10-22T07:33:40;16.60;99.90
49829;DHT22;35723;51.194;5.112;2022-10-22T07:36:08;16.60;99.90
49829;DHT22;35723;51.194;5.112;2022-10-22T07:38:35;16.70;99.90
49829;DHT22;35723;51.194;5.112;2022-10-22T07:41:00;16.70;99.90
49829;DHT22;35723;51.194;5.112;2022-10-22T07:43:26;16.70;99.90
49829;DHT22;35723;51.194;5.112;2022-10-22T07:45:52;16.60;99.90
49829;DHT22;35723;51.194;5.112;2022-10-22T07:48:20;16.70;99.90
49829;DHT22;35723;51.194;5.112;2022-10-22T07:50:48;16.70;99.90
49829;DHT22;35723;51.194;5.112;2022-10-22T07:53:14;16.70;99.90
49829;DHT22;35723;51.194;5.112;2022-10-22T07:55:40;16.70;99.90
49829;DHT22;35723;51.194;5.112;2022-10-22T07:58:05;16.80;99.90
49829;DHT22;35723;51.194;5.112;2022-10-22T08:00:31;16.80;99.90
49829;DHT22;35723;51.194;5.112;2022-10-22T08:02:57;16.80;99.90
49829;DHT22;35723;51.194;5.112;2022-10-22T08:05:22;16.80;99.90
49829;DHT22;35723;51.194;5.112;2022-10-22T08:07:48;16.90;99.90
49829;DHT22;35723;51.194;5.112;2022-10-22T08:10:13;17.00;99.90
49829;DHT22;35723;51.194;5.112;2022-10-22T08:12:40;16.90;99.90
49829;DHT22;35723;51.194;5.112;2022-10-22T08:15:06;17.00;99.90
49829;DHT22;35723;51.194;5.112;2022-10-22T08:17:32;17.00;99.90
49829;DHT22;35723;51.194;5.112;2022-10-22T08:19:58;17.00;99.90
49829;DHT22;35723;51.194;5.112;2022-10-22T08:22:23;17.00;99.90
49829;DHT22;35723;51.194;5.112;2022-10-22T08:24:49;17.10;99.90
49829;DHT22;35723;51.194;5.112;2022-10-22T08:27:14;17.10;99.90
49829;DHT22;35723;51.194;5.112;2022-10-22T08:29:40;17.10;99.90
49829;DHT22;35723;51.194;5.112;2022-10-22T08:32:06;17.20;99.90
49829;DHT22;35723;51.194;5.112;2022-10-22T08:34:31;17.20;99.90
49829;DHT22;35723;51.194;5.112;2022-10-22T08:36:57;17.30;99.90
49829;DHT22;35723;51.194;5.112;2022-10-22T08:39:23;17.40;99.90
49829;DHT22;35723;51.194;5.112;2022-10-22T08:49:58;17.40;99.90
49829;DHT22;35723;51.194;5.112;2022-10-22T08:52:25;17.40;99.90
49829;DHT22;35723;51.194;5.112;2022-10-22T08:54:58;17.40;99.90
49829;DHT22;35723;51.194;5.112;2022-10-22T08:57:37;17.40;99.90
49829;DHT22;35723;51.194;5.112;2022-10-22T09:00:21;17.40;99.90
49829;DHT22;35723;51.194;5.112;2022-10-22T09:06:18;17.50;99.90
49829;DHT22;35723;51.194;5.112;2022-10-22T09:08:47;17.40;99.90
49829;DHT22;35723;51.194;5.112;2022-10-22T09:13:43;17.50;99.90
49829;DHT22;35723;51.194;5.112;2022-10-22T09:16:24;17.50;99.90
49829;DHT22;35723;51.194;5.112;2022-10-22T09:19:17;17.50;99.90
49829;DHT22;35723;51.194;5.112;2022-10-22T09:27:18;17.50;99.90
49829;DHT22;35723;51.194;5.112;2022-10-22T09:29:46;17.50;99.90
49829;DHT22;35723;51.194;5.112;2022-10-22T09:32:15;18.10;99.90
49829;DHT22;35723;51.194;5.112;2022-10-22T09:34:44;18.00;99.90
49829;DHT22;35723;51.194;5.112;2022-10-22T09:37:10;17.70;99.90
49829;DHT22;35723;51.194;5.112;2022-10-22T09:39:43;17.50;99.90
49829;DHT22;35723;51.194;5.112;2022-10-22T09:42:10;17.50;99.90
49829;DHT22;35723;51.194;5.112;2022-10-22T09:44:38;17.50;99.90
49829;DHT22;35723;51.194;5.112;2022-10-22T09:47:05;17.50;99.90
49829;DHT22;35723;51.194;5.112;2022-10-22T09:49:34;17.60;99.90
49829;DHT22;35723;51.194;5.112;2022-10-22T09:52:00;17.60;99.90
49829;DHT22;35723;51.194;5.112;2022-10-22T09:57:16;17.70;99.90
49829;DHT22;35723;51.194;5.112;2022-10-22T09:59:43;17.80;99.90
49829;DHT22;35723;51.194;5.112;2022-10-22T10:02:14;17.90;99.90
49829;DHT22;35723;51.194;5.112;2022-10-22T10:04:46;17.90;99.90
49829;DHT22;35723;51.194;5.112;2022-10-22T10:07:18;18.00;99.90
49829;DHT22;35723;51.194;5.112;2022-10-22T10:09:44;18.10;99.90
49829;DHT22;35723;51.194;5.112;2022-10-22T10:12:39;18.10;99.90
49829;DHT22;35723;51.194;5.112;2022-10-22T10:15:19;18.20;99.90
49829;DHT22;35723;51.194;5.112;2022-10-22T10:20:33;18.30;99.90
49829;DHT22;35723;51.194;5.112;2022-10-22T10:28:52;18.30;99.90
49829;DHT22;35723;51.194;5.112;2022-10-22T10:40:07;18.40;99.90
49829;DHT22;35723;51.194;5.112;2022-10-22T10:42:29;18.30;99.90
49829;DHT22;35723;51.194;5.112;2022-10-22T10:45:19;18.30;99.90
49829;DHT22;35723;51.194;5.112;2022-10-22T10:48:06;18.30;99.90
49829;DHT22;35723;51.194;5.112;2022-10-22T11:08:01;18.60;99.90
49829;DHT22;35723;51.194;5.112;2022-10-22T11:10:45;18.70;99.90
49829;DHT22;35723;51.194;5.112;2022-10-22T11:18:43;19.20;99.90
49829;DHT22;35723;51.194;5.112;2022-10-22T11:26:10;19.10;99.90
49829;DHT22;35723;51.194;5.112;2022-10-22T11:28:46;19.10;99.90
49829;DHT22;35723;51.194;5.112;2022-10-22T11:31:16;19.20;99.90
49829;DHT22;35723;51.194;5.112;2022-10-22T11:33:52;19.20;99.90
49829;DHT22;35723;51.194;5.112;2022-10-22T11:36:21;19.30;99.90
49829;DHT22;35723;51.194;5.112;2022-10-22T11:38:48;19.30;99.90
49829;DHT22;35723;51.194;5.112;2022-10-22T11:41:17;19.40;99.90
49829;DHT22;35723;51.194;5.112;2022-10-22T11:44:10;19.30;99.90
49829;DHT22;35723;51.194;5.112;2022-10-22T11:47:07;19.20;99.90
49829;DHT22;35723;51.194;5.112;2022-10-22T11:49:59;19.30;99.90
49829;DHT22;35723;51.194;5.112;2022-10-22T11:54:57;19.40;99.90
49829;DHT22;35723;51.194;5.112;2022-10-22T11:57:36;19.40;99.90
49829;DHT22;35723;51.194;5.112;2022-10-22T12:00:20;19.40;99.90
49829;DHT22;35723;51.194;5.112;2022-10-22T12:03:05;19.50;99.90
49829;DHT22;35723;51.194;5.112;2022-10-22T12:05:40;19.40;99.90
49829;DHT22;35723;51.194;5.112;2022-10-22T12:08:16;19.40;99.90
49829;DHT22;35723;51.194;5.112;2022-10-22T12:11:02;19.30;99.90
49829;DHT22;35723;51.194;5.112;2022-10-22T12:21:58;19.20;99.90
49829;DHT22;35723;51.194;5.112;2022-10-22T12:24:28;19.20;99.90
49829;DHT22;35723;51.194;5.112;2022-10-22T12:26:54;19.20;99.90
49829;DHT22;35723;51.194;5.112;2022-10-22T12:29:21;19.20;99.90
49829;DHT22;35723;51.194;5.112;2022-10-22T12:31:51;19.30;99.90
49829;DHT22;35723;51.194;5.112;2022-10-22T12:34:20;19.40;99.90
49829;DHT22;35723;51.194;5.112;2022-10-22T12:36:48;19.50;99.90
49829;DHT22;35723;51.194;5.112;2022-10-22T12:39:20;19.60;99.90
49829;DHT22;35723;51.194;5.112;2022-10-22T12:41:46;19.80;99.90
49829;DHT22;35723;51.194;5.112;2022-10-22T12:44:14;19.80;99.90
49829;DHT22;35723;51.194;5.112;2022-10-22T12:46:42;20.00;99.90
49829;DHT22;35723;51.194;5.112;2022-10-22T12:49:21;20.10;99.90
49829;DHT22;35723;51.194;5.112;2022-10-22T12:51:48;20.20;99.90
49829;DHT22;35723;51.194;5.112;2022-10-22T12:54:24;20.20;99.90
49829;DHT22;35723;51.194;5.112;2022-10-22T12:56:52;20.10;99.90
49829;DHT22;35723;51.194;5.112;2022-10-22T12:59:28;20.20;99.90
49829;DHT22;35723;51.194;5.112;2022-10-22T13:01:54;20.20;99.90
49829;DHT22;35723;51.194;5.112;2022-10-22T13:04:36;20.20;99.90
49829;DHT22;35723;51.194;5.112;2022-10-22T13:09:55;20.40;99.90
49829;DHT22;35723;51.194;5.112;2022-10-22T13:12:26;20.50;99.90
49829;DHT22;35723;51.194;5.112;2022-10-22T13:14:52;20.60;99.90
49829;DHT22;35723;51.194;5.112;2022-10-22T13:17:39;20.50;99.90
49829;DHT22;35723;51.194;5.112;2022-10-22T13:23:20;20.40;99.90
49829;DHT22;35723;51.194;5.112;2022-10-22T13:26:12;20.40;99.90
49829;DHT22;35723;51.194;5.112;2022-10-22T13:28:39;20.30;99.90
49829;DHT22;35723;51.194;5.112;2022-10-22T13:31:14;20.20;99.90
49829;DHT22;35723;51.194;5.112;2022-10-22T13:33:45;20.20;99.90
49829;DHT22;35723;51.194;5.112;2022-10-22T13:36:15;20.30;99.90
49829;DHT22;35723;51.194;5.112;2022-10-22T13:38:42;20.20;99.90
49829;DHT22;35723;51.194;5.112;2022-10-22T13:43:43;20.20;99.90
49829;DHT22;35723;51.194;5.112;2022-10-22T13:46:09;20.20;99.90
49829;DHT22;35723;51.194;5.112;2022-10-22T13:48:35;20.20;99.90
49829;DHT22;35723;51.194;5.112;2022-10-22T13:51:01;20.20;99.90
49829;DHT22;35723;51.194;5.112;2022-10-22T13:53:29;20.30;99.90
49829;DHT22;35723;51.194;5.112;2022-10-22T13:55:55;20.20;99.90
49829;DHT22;35723;51.194;5.112;2022-10-22T13:58:23;20.20;99.90
49829;DHT22;35723;51.194;5.112;2022-10-22T14:00:57;20.20;99.90
49829;DHT22;35723;51.194;5.112;2022-10-22T14:03:32;20.30;99.90
49829;DHT22;35723;51.194;5.112;2022-10-22T14:05:59;20.40;99.90
49829;DHT22;35723;51.194;5.112;2022-10-22T14:08:26;20.80;99.90
49829;DHT22;35723;51.194;5.112;2022-10-22T14:10:53;21.10;99.90
49829;DHT22;35723;51.194;5.112;2022-10-22T14:13:19;21.10;99.90
49829;DHT22;35723;51.194;5.112;2022-10-22T14:15:47;20.90;99.90
49829;DHT22;35723;51.194;5.112;2022-10-22T14:18:20;20.70;99.90
49829;DHT22;35723;51.194;5.112;2022-10-22T14:20:52;20.60;99.90
49829;DHT22;35723;51.194;5.112;2022-10-22T14:23:19;20.30;99.90
49829;DHT22;35723;51.194;5.112;2022-10-22T14:25:46;20.40;99.90
49829;DHT22;35723;51.194;5.112;2022-10-22T14:28:12;20.40;99.90
49829;DHT22;35723;51.194;5.112;2022-10-22T14:30:38;20.30;99.90
49829;DHT22;35723;51.194;5.112;2022-10-22T14:33:14;20.20;99.90
49829;DHT22;35723;51.194;5.112;2022-10-22T14:35:40;20.40;99.90
49829;DHT22;35723;51.194;5.112;2022-10-22T14:38:06;20.50;99.90
49829;DHT22;35723;51.194;5.112;2022-10-22T14:40:31;20.70;99.90
49829;DHT22;35723;51.194;5.112;2022-10-22T14:42:57;20.80;99.90
49829;DHT22;35723;51.194;5.112;2022-10-22T14:45:25;20.70;99.90
49829;DHT22;35723;51.194;5.112;2022-10-22T14:47:52;20.60;99.90
49829;DHT22;35723;51.194;5.112;2022-10-22T14:50:20;20.40;99.90
49829;DHT22;35723;51.194;5.112;2022-10-22T14:52:47;20.40;99.90
49829;DHT22;35723;51.194;5.112;2022-10-22T14:55:14;20.20;99.90
49829;DHT22;35723;51.194;5.112;2022-10-22T14:57:41;20.10;99.90
49829;DHT22;35723;51.194;5.112;2022-10-22T15:00:10;20.10;99.90
49829;DHT22;35723;51.194;5.112;2022-10-22T15:02:36;20.10;99.90
49829;DHT22;35723;51.194;5.112;2022-10-22T15:05:02;20.00;99.90
49829;DHT22;35723;51.194;5.112;2022-10-22T15:07:27;20.40;99.90
49829;DHT22;35723;51.194;5.112;2022-10-22T15:09:53;20.20;99.90
49829;DHT22;35723;51.194;5.112;2022-10-22T15:12:19;20.10;99.90
49829;DHT22;35723;51.194;5.112;2022-10-22T15:14:46;20.00;99.90
49829;DHT22;35723;51.194;5.112;2022-10-22T15:17:12;20.00;99.90
49829;DHT22;35723;51.194;5.112;2022-10-22T15:19:37;20.20;99.90
49829;DHT22;35723;51.194;5.112;2022-10-22T15:22:03;20.20;99.90
49829;DHT22;35723;51.194;5.112;2022-10-22T15:24:30;20.30;99.90
49829;DHT22;35723;51.194;5.112;2022-10-22T15:26:56;20.20;99.90
49829;DHT22;35723;51.194;5.112;2022-10-22T15:29:22;20.20;99.90
49829;DHT22;35723;51.194;5.112;2022-10-22T15:31:52;20.10;99.90
49829;DHT22;35723;51.194;5.112;2022-10-22T15:34:24;20.00;99.90
49829;DHT22;35723;51.194;5.112;2022-10-22T15:36:52;20.00;99.90
49829;DHT22;35723;51.194;5.112;2022-10-22T15:39:18;19.90;99.90
49829;DHT22;35723;51.194;5.112;2022-10-22T15:41:44;19.60;99.90
49829;DHT22;35723;51.194;5.112;2022-10-22T15:44:20;19.40;99.90
49829;DHT22;35723;51.194;5.112;2022-10-22T15:46:45;19.40;99.90
49829;DHT22;35723;51.194;5.112;2022-10-22T15:49:11;19.30;99.90
49829;DHT22;35723;51.194;5.112;2022-10-22T15:51:37;19.30;99.90
49829;DHT22;35723;51.194;5.112;2022-10-22T15:54:03;19.20;99.90
49829;DHT22;35723;51.194;5.112;2022-10-22T15:56:30;19.10;99.90
49829;DHT22;35723;51.194;5.112;2022-10-22T15:59:00;19.20;99.90
49829;DHT22;35723;51.194;5.112;2022-10-22T16:01:30;18.90;99.90
49829;DHT22;35723;51.194;5.112;2022-10-22T16:03:56;18.70;99.90
49829;DHT22;35723;51.194;5.112;2022-10-22T16:06:36;18.70;99.90
49829;DHT22;35723;51.194;5.112;2022-10-22T16:09:05;18.80;99.90
49829;DHT22;35723;51.194;5.112;2022-10-22T16:11:31;18.50;99.90
49829;DHT22;35723;51.194;5.112;2022-10-22T16:13:58;18.40;99.90
49829;DHT22;35723;51.194;5.112;2022-10-22T16:16:26;18.20;99.90
49829;DHT22;35723;51.194;5.112;2022-10-22T16:18:52;18.20;99.90
49829;DHT22;35723;51.194;5.112;2022-10-22T16:21:18;18.00;99.90
49829;DHT22;35723;51.194;5.112;2022-10-22T16:23:45;17.90;99.90
49829;DHT22;35723;51.194;5.112;2022-10-22T16:26:11;17.90;99.90
49829;DHT22;35723;51.194;5.112;2022-10-22T16:28:37;17.90;99.90
49829;DHT22;35723;51.194;5.112;2022-10-22T16:31:04;18.00;99.90
49829;DHT22;35723;51.194;5.112;2022-10-22T16:33:30;18.10;99.90
49829;DHT22;35723;51.194;5.112;2022-10-22T16:35:56;18.10;99.90
49829;DHT22;35723;51.194;5.112;2022-10-22T16:38:22;18.10;99.90
49829;DHT22;35723;51.194;5.112;2022-10-22T16:40:47;18.00;99.90
49829;DHT22;35723;51.194;5.112;2022-10-22T16:43:14;18.00;99.90
49829;DHT22;35723;51.194;5.112;2022-10-22T16:45:49;17.90;99.90
49829;DHT22;35723;51.194;5.112;2022-10-22T16:48:15;17.90;99.90
49829;DHT22;35723;51.194;5.112;2022-10-22T16:50:41;17.90;99.90
49829;DHT22;35723;51.194;5.112;2022-10-22T16:53:07;17.80;99.90
49829;DHT22;35723;51.194;5.112;2022-10-22T16:55:39;17.80;99.90
49829;DHT22;35723;51.194;5.112;2022-10-22T16:58:05;17.70;99.90
49829;DHT22;35723;51.194;5.112;2022-10-22T17:00:31;17.70;99.90
49829;DHT22;35723;51.194;5.112;2022-10-22T17:02:57;17.70;99.90
49829;DHT22;35723;51.194;5.112;2022-10-22T17:05:23;17.60;99.90
49829;DHT22;35723;51.194;5.112;2022-10-22T17:07:49;17.50;99.90
49829;DHT22;35723;51.194;5.112;2022-10-22T17:10:15;17.40;99.90
49829;DHT22;35723;51.194;5.112;2022-10-22T17:12:43;17.30;99.90
49829;DHT22;35723;51.194;5.112;2022-10-22T17:15:09;17.40;99.90
49829;DHT22;35723;51.194;5.112;2022-10-22T17:17:35;17.40;99.90
49829;DHT22;35723;51.194;5.112;2022-10-22T17:20:01;17.30;99.90
49829;DHT22;35723;51.194;5.112;2022-10-22T17:22:26;17.30;99.90
49829;DHT22;35723;51.194;5.112;2022-10-22T17:25:23;17.30;99.90
49829;DHT22;35723;51.194;5.112;2022-10-22T17:27:50;17.30;99.90
49829;DHT22;35723;51.194;5.112;2022-10-22T17:30:18;17.10;99.90
49829;DHT22;35723;51.194;5.112;2022-10-22T17:32:45;17.10;99.90
49829;DHT22;35723;51.194;5.112;2022-10-22T17:35:11;17.10;99.90